PWSweather.com
Personal Weather Stations
Station Observations
EMMBROOK1
Emmbrook, WokinghamGB

EmmbrookWokinghamGB

Lat: 51.42698, Lon: -0.850575

Elevation: 144

Station Type: WH1081

http://www.wokinghamweather.co.uk

Latest ConditionsUpdated 6:45:02 AM GMT Sunday, Jul 23, 2017
Currently Today's Max Today's Min Today's Average
Temperature 53.8°F12.1°C 53.8°F12.1°C 49.5°F9.7°C 51.3°F10.7°C
Dew Point 53.0°F11.7°C 53.0°F11.7°C 49.2°F9.6°C 50.9°F10.5°C
Winds 3.4 mph SW5.5 kmh SW 3.4 mph SW5.5 kmh SW - 0.5 mph 0.8 kmh
Wind Gusts 5.4 mph8.7 kmh 5.4 mph8.7 kmh - -
Humidity 97% 99% 97% 99%
Pressure 29.89 in1012.2 mb 29.89 in1012.2 mb 29.83 in1010.2 mb -
Hour Temp Dew Point Humidity Winds Wind Gusts Pressure Precip Precip Rate Daily Precip Total
06:45 AM 53.8°F12.1°C 53.0°F11.7°C 97% 3.4 mph SW5.5 kmh SW 5.4 mph8.7 kmh 29.89 in1012.2 mb 0.00 in0.0 mm 0.00 in0.0 mm 0.00 in0.0 mm
06:30 AM 53.2°F11.8°C 52.7°F11.5°C 98% 3.4 mph SW5.5 kmh SW 5.4 mph8.7 kmh 29.89 in1012.2 mb 0.00 in0.0 mm 0.00 in0.0 mm 0.00 in0.0 mm
06:15 AM 52.2°F11.2°C 51.6°F10.9°C 98% 3.3 mph WSW5.3 kmh WSW 3.8 mph6.1 kmh 29.89 in1012.2 mb 0.00 in0.0 mm 0.00 in0.0 mm 0.00 in0.0 mm
06:00 AM 51.1°F10.6°C 50.8°F10.4°C 99% 2.7 mph SW4.3 kmh SW 3.8 mph6.1 kmh 29.88 in1011.9 mb 0.00 in0.0 mm 0.00 in0.0 mm 0.00 in0.0 mm
05:45 AM 50.0°F10.0°C 49.7°F9.8°C 99% 0.4 mph SSE0.6 kmh SSE 1.6 mph2.6 kmh 29.87 in1011.5 mb 0.00 in0.0 mm 0.00 in0.0 mm 0.00 in0.0 mm
05:30 AM 49.5°F9.7°C 49.2°F9.6°C 99% 0.2 mph SE0.3 kmh SE 0.7 mph1.1 kmh 29.87 in1011.5 mb 0.00 in0.0 mm 0.00 in0.0 mm 0.00 in0.0 mm
05:15 AM 49.5°F9.7°C 49.2°F9.6°C 99% 0.1 mph SE0.2 kmh SE 0.7 mph1.1 kmh 29.86 in1011.2 mb 0.00 in0.0 mm 0.00 in0.0 mm 0.00 in0.0 mm
05:00 AM 49.5°F9.7°C 49.2°F9.6°C 99% Calm Calm -- 29.86 in1011.2 mb 0.00 in0.0 mm 0.00 in0.0 mm 0.00 in0.0 mm
04:45 AM 49.6°F9.8°C 49.4°F9.7°C 99% Calm Calm -- 29.85 in1010.8 mb 0.00 in0.0 mm 0.00 in0.0 mm 0.00 in0.0 mm
04:30 AM 49.8°F9.9°C 49.6°F9.8°C 99% Calm Calm -- 29.84 in1010.5 mb 0.00 in0.0 mm 0.00 in0.0 mm 0.00 in0.0 mm
04:15 AM 50.0°F10.0°C 49.7°F9.8°C 99% Calm Calm -- 29.84 in1010.5 mb 0.00 in0.0 mm 0.00 in0.0 mm 0.00 in0.0 mm
04:00 AM 50.2°F10.1°C 49.9°F9.9°C 99% Calm Calm -- 29.84 in1010.5 mb 0.00 in0.0 mm 0.00 in0.0 mm 0.00 in0.0 mm
03:45 AM 49.8°F9.9°C 49.6°F9.8°C 99% Calm Calm -- 29.84 in1010.5 mb 0.00 in0.0 mm 0.00 in0.0 mm 0.00 in0.0 mm
03:30 AM 50.0°F10.0°C 49.7°F9.8°C 99% Calm Calm -- 29.84 in1010.5 mb 0.00 in0.0 mm 0.00 in0.0 mm 0.00 in0.0 mm
03:15 AM 50.4°F10.2°C 50.1°F10.1°C 99% Calm Calm -- 29.84 in1010.5 mb 0.00 in0.0 mm 0.00 in0.0 mm 0.00 in0.0 mm
03:00 AM 50.5°F10.3°C 50.3°F10.2°C 99% Calm Calm -- 29.84 in1010.5 mb 0.00 in0.0 mm 0.00 in0.0 mm 0.00 in0.0 mm
02:45 AM 50.7°F10.4°C 50.5°F10.3°C 99% Calm Calm -- 29.83 in1010.2 mb 0.00 in0.0 mm 0.00 in0.0 mm 0.00 in0.0 mm
02:30 AM 51.1°F10.6°C 50.8°F10.4°C 99% Calm Calm -- 29.84 in1010.5 mb 0.00 in0.0 mm 0.00 in0.0 mm 0.00 in0.0 mm
02:15 AM 51.3°F10.7°C 51.0°F10.6°C 99% Calm Calm -- 29.84 in1010.5 mb 0.00 in0.0 mm 0.00 in0.0 mm 0.00 in0.0 mm
02:00 AM 51.4°F10.8°C 51.2°F10.7°C 99% Calm Calm -- 29.83 in1010.2 mb 0.00 in0.0 mm 0.00 in0.0 mm 0.00 in0.0 mm
01:45 AM 51.6°F10.9°C 51.4°F10.8°C 99% Calm Calm -- 29.84 in1010.5 mb 0.00 in0.0 mm 0.00 in0.0 mm 0.00 in0.0 mm
01:30 AM 52.0°F11.1°C 51.4°F10.8°C 98% Calm Calm -- 29.84 in1010.5 mb 0.00 in0.0 mm 0.00 in0.0 mm 0.00 in0.0 mm
01:15 AM 52.3°F11.3°C 51.8°F11.0°C 98% Calm Calm -- 29.84 in1010.5 mb 0.00 in0.0 mm 0.00 in0.0 mm 0.00 in0.0 mm
01:00 AM 52.9°F11.6°C 52.3°F11.3°C 98% Calm Calm -- 29.83 in1010.2 mb 0.00 in0.0 mm 0.00 in0.0 mm 0.00 in0.0 mm
12:45 AM 53.4°F11.9°C 52.9°F11.6°C 98% Calm Calm -- 29.83 in1010.2 mb 0.00 in0.0 mm 0.00 in0.0 mm 0.00 in0.0 mm
12:30 AM 53.6°F12.0°C 52.8°F11.6°C 97% Calm Calm -- 29.83 in1010.2 mb 0.00 in0.0 mm 0.00 in0.0 mm 0.00 in0.0 mm
12:15 AM 53.8°F12.1°C 53.0°F11.7°C 97% Calm Calm -- 29.83 in1010.2 mb 0.00 in0.0 mm 0.00 in0.0 mm 0.00 in0.0 mm
12:00 AM 53.8°F12.1°C 53.0°F11.7°C 97% Calm Calm -- 29.83 in1010.2 mb 0.00 in0.0 mm 0.00 in0.0 mm 0.00 in0.0 mm